Tolna, Pennsylvania
Current Conditions -  °F | °C
As of 9:53 PM on Wednesday 26 Nov 2014 (Local Time) from KTHV Reporting Station
Overcast Overcast  
Wind Chill: 27°   Ceiling: 1700
Heat Index: 34°   Visibility: 10mi
Dew Point: 30°   Wind: 8mph
Humidity: 85%   Direction: 300°WNW
Pressure: 29.95"   Gusts: NA
Location:  39.7456°N, 76.6794°W
Report Text: KTHV 270253Z AUTO 30007KT 10SM BKN017 BKN070 OVC100 01/M01 A2995 RMK AO2 SLP147 P0001 60005 T00111011 53001
Loading
Personal Weather Stations






























Interactive Weather Map New forecast layout! Learn more

10-Day Weather Forecast

Advertisements
Track Severe Weather on mobile